Time;durP1;ratioP1;P1;durP2;ratioP2;P2;SDS_P1;SDS_P2;PMS_P1;PMS_P2;Temp;Humidity;BMP_temperature;BMP_pressure;BME280_temperature;BME280_humidity;BME280_pressure;Samples;Min_cycle;Max_cycle;Signal;HPM_P1;HPM_P2
2022/02/15 00:02:46;;;;;;;71.50;35.67;;;;;;;-0.86;77.97;98471.89;2117128;84;20951;-80
2022/02/15 00:05:47;;;;;;;68.17;33.87;;;;;;;-0.87;78.00;98471.38;2116739;84;20904;-81
2022/02/15 00:08:47;;;;;;;80.23;35.00;;;;;;;-0.90;77.94;98476.34;2116267;84;20956;-80
2022/02/15 00:11:48;;;;;;;73.33;35.30;;;;;;;-0.93;78.04;98471.47;2116226;84;21395;-80
2022/02/15 00:14:48;;;;;;;66.73;34.93;;;;;;;-0.94;78.09;98475.72;2116322;84;21418;-81
2022/02/15 00:17:49;;;;;;;68.07;35.40;;;;;;;-0.98;78.01;98476.36;2116251;84;20952;-81
2022/02/15 00:20:51;;;;;;;71.63;35.97;;;;;;;-1.00;78.25;98474.13;2099160;84;21066;-81
2022/02/15 00:23:52;;;;;;;75.53;35.50;;;;;;;-1.01;78.25;98473.64;2116514;84;20972;-80
2022/02/15 00:26:54;;;;;;;79.90;37.70;;;;;;;-1.02;78.23;98474.45;2048848;84;21030;-82
2022/02/15 00:29:55;;;;;;;69.10;34.87;;;;;;;-1.05;78.16;98475.17;2111728;84;21003;-81
2022/02/15 00:32:55;;;;;;;77.10;37.83;;;;;;;-1.09;78.32;98466.85;2111612;84;20960;-81
2022/02/15 00:35:57;;;;;;;73.93;38.03;;;;;;;-1.13;78.50;98463.66;2095329;84;21051;-79
2022/02/15 00:38:58;;;;;;;72.30;37.73;;;;;;;-1.15;78.75;98461.81;2110364;84;20991;-79
2022/02/15 00:41:59;;;;;;;90.03;38.37;;;;;;;-1.15;78.64;98460.13;2110909;84;20968;-81
2022/02/15 00:44:59;;;;;;;75.50;38.20;;;;;;;-1.18;78.68;98459.09;2052269;86;21006;-81
2022/02/15 00:48:00;;;;;;;71.10;37.63;;;;;;;-1.21;78.70;98457.66;2111122;84;20953;-81
2022/02/15 00:51:00;;;;;;;68.93;35.30;;;;;;;-1.23;78.71;98459.27;2052151;86;20924;-81
2022/02/15 00:54:01;;;;;;;78.40;37.43;;;;;;;-1.25;78.82;98454.47;2110427;84;21375;-80
2022/02/15 00:57:01;;;;;;;68.37;35.47;;;;;;;-1.29;79.06;98453.42;2110237;84;21011;-80
2022/02/15 01:00:02;;;;;;;64.50;34.97;;;;;;;-1.29;79.05;98454.31;2110476;84;20928;-81
2022/02/15 01:03:02;;;;;;;74.63;38.20;;;;;;;-1.29;79.20;98449.59;2110673;84;20977;-80
2022/02/15 01:06:03;;;;;;;68.63;35.60;;;;;;;-1.28;79.22;98447.50;2051841;86;20955;-80
2022/02/15 01:09:03;;;;;;;70.17;36.80;;;;;;;-1.26;79.53;98439.90;2110257;84;20944;-79
2022/02/15 01:12:04;;;;;;;69.23;36.50;;;;;;;-1.30;79.24;98438.47;2051463;86;20951;-79
2022/02/15 01:15:04;;;;;;;71.50;36.00;;;;;;;-1.30;79.43;98430.78;2110284;84;20995;-80
2022/02/15 01:18:05;;;;;;;64.53;36.67;;;;;;;-1.29;79.35;98433.82;2051338;86;21335;-80
2022/02/15 01:21:06;;;;;;;75.73;37.70;;;;;;;-1.31;79.35;98429.02;2110611;84;21636;-80
2022/02/15 01:24:06;;;;;;;76.80;38.50;;;;;;;-1.29;79.52;98432.94;2110550;84;20940;-82
2022/02/15 01:27:07;;;;;;;70.47;36.53;;;;;;;-1.29;79.45;98425.27;2111291;82;21035;-80
2022/02/15 01:30:07;;;;;;;72.30;38.30;;;;;;;-1.29;79.42;98423.58;2055207;86;21433;-80
2022/02/15 01:33:08;;;;;;;64.37;34.47;;;;;;;-1.30;79.99;98425.66;2115162;84;21402;-79
2022/02/15 01:36:08;;;;;;;77.83;38.60;;;;;;;-1.29;79.74;98424.86;2056513;86;21356;-80
2022/02/15 01:39:09;;;;;;;64.77;36.20;;;;;;;-1.30;79.79;98424.38;2115878;84;21027;-80
2022/02/15 01:42:09;;;;;;;63.60;35.67;;;;;;;-1.31;79.66;98416.22;2116026;84;20990;-80
2022/02/15 01:45:10;;;;;;;70.23;37.10;;;;;;;-1.28;80.15;98412.94;2115874;84;20976;-81
2022/02/15 01:48:11;;;;;;;66.00;36.37;;;;;;;-1.27;79.98;98410.85;2115989;84;20951;-81
2022/02/15 01:51:12;;;;;;;66.87;34.77;;;;;;;-1.29;80.41;98409.50;2116330;84;21003;-80
2022/02/15 01:54:12;;;;;;;68.37;36.23;;;;;;;-1.19;80.48;98407.00;2116135;84;20956;-79
2022/02/15 01:57:13;;;;;;;66.83;35.30;;;;;;;-1.22;80.22;98408.13;2115910;84;20978;-79
2022/02/15 02:00:14;;;;;;;68.83;35.93;;;;;;;-1.25;80.44;98407.97;2115453;84;21041;-79
2022/02/15 02:03:14;;;;;;;66.17;36.50;;;;;;;-1.27;80.23;98403.57;2115800;84;20971;-79
2022/02/15 02:06:15;;;;;;;71.60;37.33;;;;;;;-1.31;80.76;98400.86;2115800;84;20995;-79
2022/02/15 02:09:15;;;;;;;123.90;39.53;;;;;;;-1.27;80.63;98402.30;2115541;84;20968;-79
2022/02/15 02:12:16;;;;;;;63.63;35.50;;;;;;;-1.25;80.64;98401.97;2056294;86;21382;-79
2022/02/15 02:15:16;;;;;;;65.47;35.50;;;;;;;-1.26;80.81;98404.05;2115623;84;21389;-80
2022/02/15 02:18:17;;;;;;;74.60;36.00;;;;;;;-1.29;80.96;98397.97;2116162;84;21006;-80
2022/02/15 02:21:17;;;;;;;68.87;35.03;;;;;;;-1.26;81.09;98393.80;2056644;86;20995;-81
2022/02/15 02:24:18;;;;;;;62.33;34.50;;;;;;;-1.26;81.08;98393.41;2116158;84;20904;-80
2022/02/15 02:27:18;;;;;;;67.57;35.87;;;;;;;-1.26;81.29;98389.56;2116416;83;20988;-82
2022/02/15 02:30:19;;;;;;;66.80;37.00;;;;;;;-1.23;81.60;98381.16;2116154;84;20944;-81
2022/02/15 02:33:19;;;;;;;67.37;35.97;;;;;;;-1.20;81.58;98380.03;2116169;84;21375;-80
2022/02/15 02:36:20;;;;;;;70.67;38.47;;;;;;;-1.19;81.49;98380.52;2056630;86;20978;-82
2022/02/15 02:39:20;;;;;;;71.30;37.03;;;;;;;-1.21;81.79;98388.52;2116165;84;20972;-82
2022/02/15 02:42:21;;;;;;;69.67;38.50;;;;;;;-1.16;81.95;98385.78;2116042;84;21355;-81
2022/02/15 02:45:22;;;;;;;68.00;37.87;;;;;;;-1.17;81.81;98388.75;2116034;84;21447;-81
2022/02/15 02:48:23;;;;;;;69.20;38.70;;;;;;;-1.17;82.08;98380.19;2115881;84;20951;-81
2022/02/15 02:51:23;;;;;;;69.13;38.23;;;;;;;-1.17;82.42;98378.91;2115934;84;21347;-81
2022/02/15 02:54:24;;;;;;;75.27;37.33;;;;;;;-1.17;82.18;98386.59;2115631;84;20948;-81
2022/02/15 02:57:24;;;;;;;58.53;36.43;;;;;;;-1.18;82.23;98388.27;2114813;84;21402;-82
2022/02/15 03:00:25;;;;;;;65.33;37.77;;;;;;;-1.17;82.23;98385.31;2116080;84;20932;-81
2022/02/15 03:03:25;;;;;;;61.43;37.03;;;;;;;-1.16;82.34;98389.62;2116016;84;20968;-80
2022/02/15 03:06:26;;;;;;;68.13;38.23;;;;;;;-1.14;82.70;98391.86;2115940;84;20940;-80
2022/02/15 03:09:27;;;;;;;68.03;36.87;;;;;;;-1.12;82.47;98387.70;2048738;87;21082;-82
2022/02/15 03:12:27;;;;;;;58.27;37.27;;;;;;;-1.13;82.37;98387.22;2116205;84;20929;-82
2022/02/15 03:15:28;;;;;;;69.57;39.60;;;;;;;-1.13;82.52;98384.66;2057043;86;21349;-83
2022/02/15 03:18:29;;;;;;;66.67;36.23;;;;;;;-1.13;82.35;98384.25;2116319;84;21392;-82
2022/02/15 03:21:29;;;;;;;63.47;37.13;;;;;;;-1.14;82.50;98393.14;2115538;84;20983;-83
2022/02/15 03:24:30;;;;;;;67.37;38.00;;;;;;;-1.16;82.62;98394.75;2055940;86;21006;-82
2022/02/15 03:27:30;;;;;;;69.10;37.90;;;;;;;-1.14;82.64;98395.30;2115329;82;20960;-82
2022/02/15 03:30:31;;;;;;;71.90;36.63;;;;;;;-1.13;82.72;98389.78;2116615;84;20925;-80
2022/02/15 03:33:31;;;;;;;65.53;38.37;;;;;;;-1.13;82.69;98393.22;2116393;84;20939;-81
2022/02/15 03:36:31;;;;;;;63.83;38.03;;;;;;;-1.13;82.78;98392.34;2116069;84;20975;-83
2022/02/15 03:39:32;;;;;;;66.87;37.03;;;;;;;-1.11;82.79;98389.45;2115800;84;21395;-82
2022/02/15 03:45:52;;;;;;;66.70;38.30;;;;;;;-1.13;82.83;98392.34;2056463;86;21034;-82
2022/02/15 03:48:52;;;;;;;70.93;37.50;;;;;;;-1.12;83.19;98397.54;2115969;84;21358;-82
2022/02/15 03:51:53;;;;;;;67.33;38.33;;;;;;;-1.11;82.97;98397.14;2115996;84;20999;-82
2022/02/15 03:54:53;;;;;;;89.47;39.30;;;;;;;-1.12;83.03;98392.81;2116168;84;20936;-80
2022/02/15 03:57:54;;;;;;;63.57;36.50;;;;;;;-1.12;83.10;98394.09;2116201;84;20976;-81
2022/02/15 04:00:54;;;;;;;73.03;38.50;;;;;;;-1.11;83.12;98391.61;2056758;86;20998;-83
2022/02/15 04:03:55;;;;;;;61.43;35.93;;;;;;;-1.11;82.92;98390.73;2116524;84;20944;-82
2022/02/15 04:06:55;;;;;;;65.50;36.30;;;;;;;-1.11;83.15;98397.14;2116949;84;21380;-81
2022/02/15 04:09:56;;;;;;;70.87;38.73;;;;;;;-1.12;83.40;98395.38;2116434;84;20960;-82
2022/02/15 04:12:58;;;;;;;63.70;37.63;;;;;;;-1.06;83.25;98398.25;2050217;87;21085;-82
2022/02/15 04:15:59;;;;;;;62.67;34.93;;;;;;;-1.08;83.43;98398.57;2115820;84;21394;-82
2022/02/15 04:18:59;;;;;;;108.77;59.23;;;;;;;-1.08;84.49;98398.17;2115488;84;21378;-83
2022/02/15 04:22:00;;;;;;;61.17;36.90;;;;;;;-0.78;83.76;98403.95;2116674;84;21003;-82
2022/02/15 04:25:01;;;;;;;66.13;37.80;;;;;;;-0.88;82.67;98409.41;2057026;86;20974;-83
2022/02/15 04:28:01;;;;;;;64.20;35.17;;;;;;;-1.00;82.09;98408.80;2116210;83;21007;-83
2022/02/15 04:31:02;;;;;;;76.80;37.67;;;;;;;-1.10;82.61;98412.58;2056705;86;21010;-82
2022/02/15 04:34:02;;;;;;;63.67;36.23;;;;;;;-1.07;82.36;98414.02;2116135;84;20975;-82
2022/02/15 04:37:02;;;;;;;55.57;32.13;;;;;;;-1.16;82.02;98409.72;2116260;84;21386;-83
2022/02/15 04:40:03;;;;;;;62.03;33.57;;;;;;;-1.25;81.77;98416.05;2115162;84;21367;-81
2022/02/15 04:43:04;;;;;;;62.30;33.63;;;;;;;-1.12;82.81;98406.91;2056423;86;20951;-82
2022/02/15 04:46:04;;;;;;;60.97;35.27;;;;;;;-1.18;82.07;98411.32;2114948;84;21042;-81
2022/02/15 04:49:05;;;;;;;60.07;34.50;;;;;;;-1.22;82.55;98417.09;2055397;86;20994;-80
2022/02/15 04:52:06;;;;;;;62.00;34.50;;;;;;;-1.25;82.74;98407.09;2114261;84;22183;-81
2022/02/15 04:55:06;;;;;;;57.83;33.87;;;;;;;-1.28;83.21;98411.66;2055094;86;20986;-82
2022/02/15 04:58:07;;;;;;;59.47;34.90;;;;;;;-1.30;83.36;98407.73;2114164;84;20987;-81
2022/02/15 05:01:07;;;;;;;59.10;35.77;;;;;;;-1.33;83.23;98408.86;2114708;84;21003;-81
2022/02/15 05:07:29;;;;;;;66.93;36.93;;;;;;;-1.32;83.64;98406.78;2055132;86;21487;-80
2022/02/15 05:10:29;;;;;;;63.17;35.43;;;;;;;-1.32;83.70;98405.50;2114036;84;21054;-81
2022/02/15 05:13:30;;;;;;;66.47;35.07;;;;;;;-1.32;83.88;98409.73;2113702;84;20975;-81
2022/02/15 05:16:30;;;;;;;59.80;33.80;;;;;;;-1.34;83.75;98408.78;2113232;84;21082;-81
2022/02/15 05:19:31;;;;;;;59.53;35.63;;;;;;;-1.34;84.03;98408.78;2113985;84;21019;-81
2022/02/15 05:22:31;;;;;;;60.93;35.37;;;;;;;-1.36;83.91;98403.58;2056492;86;21793;-81
2022/02/15 05:25:32;;;;;;;56.57;33.63;;;;;;;-1.38;84.00;98403.91;2113379;84;21019;-81
2022/02/15 05:28:32;;;;;;;56.10;33.47;;;;;;;-1.38;84.15;98395.34;2065239;84;21060;-80
2022/02/15 05:31:33;;;;;;;83.37;38.30;;;;;;;-1.35;84.41;98398.94;2095222;85;21001;-82
2022/02/15 05:34:33;;;;;;;61.33;36.00;;;;;;;-1.36;84.43;98406.14;2051569;87;21013;-82
2022/02/15 05:37:34;;;;;;;62.13;35.33;;;;;;;-1.34;84.46;98403.66;2078636;85;21029;-81
2022/02/15 05:40:34;;;;;;;65.47;37.20;;;;;;;-1.31;84.40;98404.70;2096043;85;20971;-81
2022/02/15 05:43:35;;;;;;;60.20;35.57;;;;;;;-1.29;84.37;98402.22;2051894;87;20966;-82
2022/02/15 05:46:35;;;;;;;68.37;36.57;;;;;;;-1.30;84.36;98411.58;2094999;85;21056;-81
2022/02/15 05:50:49;;;;;;;62.93;35.80;;;;;;;-1.27;84.19;98411.25;2096724;85;21005;-81
2022/02/15 05:52:39;;;;;;;64.00;33.90;;;;;;;-1.27;83.94;98415.98;2051859;86;21081;-82
2022/02/15 05:55:40;;;;;;;70.90;34.63;;;;;;;-1.31;83.81;98416.22;2096217;85;20989;-81
2022/02/15 05:58:40;;;;;;;66.20;33.73;;;;;;;-1.34;83.96;98415.19;2096767;85;21016;-82
2022/02/15 06:01:41;;;;;;;58.97;34.07;;;;;;;-1.32;84.00;98417.02;2052253;87;21013;-81
2022/02/15 06:04:41;;;;;;;60.00;34.17;;;;;;;-1.29;84.01;98422.30;2095754;85;21057;-79
2022/02/15 06:07:42;;;;;;;61.57;35.57;;;;;;;-1.26;83.95;98433.09;2094978;85;21013;-79
2022/02/15 06:10:43;;;;;;;62.63;37.27;;;;;;;-1.24;83.82;98437.02;2052180;87;21301;-78
2022/02/15 06:13:44;;;;;;;63.23;38.37;;;;;;;-1.21;84.08;98432.94;2096614;85;21049;-78
2022/02/15 06:16:45;;;;;;;61.47;35.93;;;;;;;-1.15;84.35;98433.64;2095546;85;21064;-80
2022/02/15 06:19:46;;;;;;;60.27;34.30;;;;;;;-1.10;83.99;98433.47;2050837;87;21046;-79
2022/02/15 06:22:48;;;;;;;61.20;35.93;;;;;;;-1.08;83.82;98430.59;2077308;85;21061;-80
2022/02/15 06:25:48;;;;;;;63.73;36.80;;;;;;;-1.04;83.83;98437.63;2094676;85;20973;-80
2022/02/15 06:28:49;;;;;;;62.10;36.43;;;;;;;-1.00;84.06;98440.82;2049382;87;21349;-80
2022/02/15 06:31:49;;;;;;;57.23;35.97;;;;;;;-0.95;83.86;98445.77;2089123;85;21271;-79
2022/02/15 06:34:50;;;;;;;61.07;35.57;;;;;;;-0.90;83.85;98451.13;2135801;83;20986;-81
2022/02/15 06:37:51;;;;;;;59.20;34.37;;;;;;;-0.86;83.63;98442.83;2135937;83;21029;-81
2022/02/15 06:40:51;;;;;;;61.10;36.27;;;;;;;-0.78;83.83;98451.38;2089840;85;21053;-80
2022/02/15 06:43:52;;;;;;;58.97;34.57;;;;;;;-0.63;83.88;98451.25;2136272;83;20962;-81
2022/02/15 06:46:52;;;;;;;61.37;34.70;;;;;;;-0.55;83.85;98452.90;2134868;83;21089;-81
2022/02/15 06:49:53;;;;;;;60.97;34.87;;;;;;;-0.48;83.56;98451.98;2089824;85;21448;-79
2022/02/15 06:52:53;;;;;;;57.47;34.63;;;;;;;-0.39;83.39;98457.97;2135271;83;21018;-79
2022/02/15 06:55:53;;;;;;;61.03;34.97;;;;;;;-0.29;83.45;98459.28;2135274;83;21017;-79
2022/02/15 06:58:54;;;;;;;60.43;35.43;;;;;;;-0.19;83.22;98459.80;2135277;83;21048;-81
2022/02/15 07:01:55;;;;;;;59.60;36.57;;;;;;;-0.07;83.21;98462.94;2090287;85;21061;-81
2022/02/15 07:04:56;;;;;;;94.23;37.77;;;;;;;0.08;83.13;98462.81;2135934;83;21037;-82
2022/02/15 07:07:56;;;;;;;66.80;37.23;;;;;;;1.44;95.53;98458.53;2136271;83;21030;-80
2022/02/15 07:10:57;;;;;;;62.13;36.10;;;;;;;3.34;83.92;98463.22;2136084;83;20994;-81
2022/02/15 07:13:57;;;;;;;60.97;35.17;;;;;;;2.98;79.46;98464.52;2136339;83;21349;-81
2022/02/15 07:16:58;;;;;;;65.57;37.17;;;;;;;2.58;77.92;98468.61;2136139;83;22057;-81
2022/02/15 07:19:58;;;;;;;63.77;37.80;;;;;;;2.30;77.95;98465.00;2136860;83;21657;-81
2022/02/15 07:22:59;;;;;;;60.60;37.33;;;;;;;2.14;77.80;98467.41;2136545;83;21387;-81
2022/02/15 07:26:00;;;;;;;69.00;38.40;;;;;;;2.06;77.90;98466.64;2136836;83;21388;-78
2022/02/15 07:29:03;;;;;;;66.23;38.40;;;;;;;2.06;77.95;98470.50;2130486;83;21019;-81
2022/02/15 07:32:03;;;;;;;60.77;38.20;;;;;;;2.10;78.04;98467.23;2054132;86;21006;-81
2022/02/15 07:35:04;;;;;;;56.13;36.80;;;;;;;2.19;77.78;98467.58;2113821;84;21007;-81
2022/02/15 07:38:04;;;;;;;60.43;36.77;;;;;;;2.21;77.64;98463.37;2054384;86;21026;-80
2022/02/15 07:41:05;;;;;;;63.20;36.97;;;;;;;2.29;77.51;98470.98;2114024;84;21486;-82
2022/02/15 07:44:05;;;;;;;62.60;37.37;;;;;;;2.40;77.45;98472.26;2112691;84;22014;-80
2022/02/15 07:47:06;;;;;;;63.47;36.63;;;;;;;2.51;77.17;98468.80;2112405;84;21019;-80
2022/02/15 07:50:06;;;;;;;62.00;37.13;;;;;;;2.63;76.69;98476.14;2112481;84;20990;-80
2022/02/15 07:53:07;;;;;;;58.97;37.67;;;;;;;2.72;76.63;98467.45;2113208;84;21414;-81
2022/02/15 07:56:07;;;;;;;65.83;38.33;;;;;;;2.88;76.60;98472.34;2112930;84;21394;-81
2022/02/15 07:59:08;;;;;;;74.93;37.53;;;;;;;3.05;76.32;98467.78;2053784;86;21534;-80
2022/02/15 08:02:08;;;;;;;60.57;36.73;;;;;;;3.22;76.03;98474.81;2114047;84;21003;-81
2022/02/15 08:05:09;;;;;;;57.93;34.47;;;;;;;3.38;75.68;98469.36;2054710;86;20971;-81
2022/02/15 08:08:11;;;;;;;66.40;35.87;;;;;;;3.55;75.33;98468.66;2019742;88;21082;-79
2022/02/15 08:11:12;;;;;;;57.50;35.23;;;;;;;3.68;74.88;98466.95;2018977;88;21446;-80
2022/02/15 08:14:12;;;;;;;182.10;39.87;;;;;;;3.78;74.65;98469.00;2019277;88;20978;-79
2022/02/15 08:17:13;;;;;;;86.67;39.17;;;;;;;3.90;74.29;98476.27;2019514;88;22069;-81
2022/02/15 08:20:13;;;;;;;64.67;37.83;;;;;;;3.98;73.79;98478.67;2019798;88;21465;-82
2022/02/15 08:23:15;;;;;;;52.53;33.90;;;;;;;4.11;73.74;98471.77;2020684;88;21017;-83
2022/02/15 08:26:17;;;;;;;62.27;37.03;;;;;;;4.24;73.45;98480.36;2019889;88;21005;-80
2022/02/15 08:29:17;;;;;;;56.70;34.20;;;;;;;4.41;73.10;98480.91;2022500;87;21049;-80
2022/02/15 08:32:18;;;;;;;79.80;40.63;;;;;;;4.57;72.20;98471.48;2031291;88;21064;-83
2022/02/15 08:35:19;;;;;;;69.60;41.07;;;;;;;4.59;75.49;98472.41;2031876;88;20986;-84
2022/02/15 08:38:20;;;;;;;53.17;33.13;;;;;;;6.94;79.06;98463.68;2031652;88;20998;-80
2022/02/15 08:41:23;;;;;;;54.10;31.83;;;;;;;7.73;69.75;98459.08;2031646;88;21001;-81
2022/02/15 08:44:24;;;;;;;46.30;31.63;;;;;;;6.99;67.84;98459.45;2031809;88;21459;-82
2022/02/15 08:47:24;;;;;;;82.20;41.17;;;;;;;6.54;67.58;98467.55;2032788;88;21049;-82
2022/02/15 08:50:25;;;;;;;73.17;36.20;;;;;;;7.80;74.23;98463.95;2031156;88;21022;-81
2022/02/15 08:53:25;;;;;;;57.60;34.53;;;;;;;9.30;66.49;98457.86;2031348;88;21021;-80
2022/02/15 08:56:26;;;;;;;61.50;35.70;;;;;;;8.61;62.73;98466.11;2031801;88;20985;-81
2022/02/15 08:59:28;;;;;;;91.03;35.70;;;;;;;7.95;63.64;98485.89;2031457;88;21487;-78
2022/02/15 09:02:30;;;;;;;67.47;36.23;;;;;;;7.56;64.12;98480.86;2031682;88;21035;-79
2022/02/15 09:05:30;;;;;;;64.10;34.13;;;;;;;7.39;64.30;98474.49;2114563;83;21281;-81
2022/02/15 09:08:31;;;;;;;60.30;32.10;;;;;;;7.20;63.79;98478.46;2145561;83;21013;-80
2022/02/15 09:11:32;;;;;;;60.73;30.87;;;;;;;7.10;63.90;98477.83;2102475;85;21008;-82
2022/02/15 09:14:32;;;;;;;44.33;29.90;;;;;;;7.06;64.20;98475.15;2145054;83;21001;-81
2022/02/15 09:17:37;;;;;;;45.93;29.60;;;;;;;7.03;64.04;98483.33;2101662;85;21108;-81
2022/02/15 09:20:36;;;;;;;51.70;32.60;;;;;;;7.11;64.27;98484.77;2144604;83;21428;-81
2022/02/15 09:23:37;;;;;;;58.07;33.83;;;;;;;7.19;64.51;98485.80;2144898;83;21796;-81
2022/02/15 09:26:37;;;;;;;39.17;27.53;;;;;;;7.35;64.86;98492.16;2145750;83;21024;-82
2022/02/15 09:29:44;;;;;;;39.07;27.60;;;;;;;7.45;63.80;98497.97;2135432;82;21078;-82
2022/02/15 09:32:44;;;;;;;39.17;25.63;;;;;;;7.62;63.80;98497.86;2113721;84;21346;-81
2022/02/15 09:35:45;;;;;;;37.93;25.87;;;;;;;7.72;62.79;98492.82;2054046;87;21026;-80
2022/02/15 09:38:45;;;;;;;52.20;26.73;;;;;;;7.58;62.92;98498.65;2112917;84;21066;-81
2022/02/15 09:41:46;;;;;;;41.20;26.67;;;;;;;7.49;62.36;98494.59;2112641;84;20992;-79
2022/02/15 09:44:47;;;;;;;45.03;26.93;;;;;;;7.48;63.19;98494.13;2112592;84;21413;-81
2022/02/15 09:47:48;;;;;;;59.10;28.33;;;;;;;7.58;63.85;98486.96;2112002;84;21069;-80
2022/02/15 09:50:49;;;;;;;53.23;29.17;;;;;;;7.77;63.50;98491.17;2053638;86;21017;-81
2022/02/15 09:53:49;;;;;;;56.17;28.13;;;;;;;7.81;62.32;98489.99;2112582;84;21524;-81
2022/02/15 09:56:50;;;;;;;53.30;26.87;;;;;;;7.93;62.97;98491.92;2112084;84;20999;-80
2022/02/15 09:59:50;;;;;;;37.73;24.63;;;;;;;8.06;62.37;98494.30;2112238;84;21493;-81
2022/02/15 10:02:51;;;;;;;61.07;24.50;;;;;;;8.20;61.79;98488.46;2112369;84;21381;-78
2022/02/15 10:05:51;;;;;;;44.00;25.37;;;;;;;8.43;62.25;98486.23;2112895;84;21030;-79
2022/02/15 10:08:52;;;;;;;42.60;24.87;;;;;;;8.61;61.53;98476.52;2054915;87;20973;-80
2022/02/15 10:11:52;;;;;;;34.30;23.17;;;;;;;8.81;60.84;98482.89;2114874;84;20971;-80
2022/02/15 10:14:53;;;;;;;352.93;35.03;;;;;;;8.92;60.06;98475.22;2114105;84;20959;-78
2022/02/15 10:17:53;;;;;;;33.33;23.40;;;;;;;8.99;59.87;98476.17;2114152;84;21011;-82
2022/02/15 10:20:54;;;;;;;38.00;21.97;;;;;;;8.94;59.62;98469.61;2114244;84;20995;-80
2022/02/15 10:23:56;;;;;;;35.83;20.93;;;;;;;8.98;59.13;98470.52;2113942;84;20979;-81
2022/02/15 10:26:57;;;;;;;182.83;25.57;;;;;;;9.17;59.94;98468.57;2115059;84;21280;-81
2022/02/15 10:29:57;;;;;;;37.43;20.47;;;;;;;9.52;59.59;98466.34;2113985;82;21447;-81
2022/02/15 10:32:58;;;;;;;28.13;19.23;;;;;;;9.80;58.43;98466.20;2053555;86;21450;-80
2022/02/15 10:35:58;;;;;;;32.77;20.20;;;;;;;9.78;57.80;98479.22;2112526;84;20963;-81
2022/02/15 10:39:01;;;;;;;39.03;21.70;;;;;;;9.75;57.75;98477.89;2113099;84;21034;-79
2022/02/15 10:42:01;;;;;;;29.57;20.00;;;;;;;9.94;57.94;98480.66;2112781;84;21022;-80
2022/02/15 10:45:02;;;;;;;27.43;19.23;;;;;;;10.16;56.48;98482.58;2112672;84;21038;-81
2022/02/15 10:48:02;;;;;;;34.50;19.40;;;;;;;10.21;57.28;98480.91;2112357;84;21098;-82
2022/02/15 10:51:03;;;;;;;45.53;20.27;;;;;;;10.26;55.13;98483.55;2112576;84;20975;-79
2022/02/15 10:54:06;;;;;;;33.57;18.53;;;;;;;10.20;54.79;98486.56;2113052;84;20947;-79
2022/02/15 10:57:06;;;;;;;25.90;17.77;;;;;;;10.17;55.06;98489.11;2112689;84;21046;-79
2022/02/15 11:00:07;;;;;;;32.23;18.90;;;;;;;10.17;55.31;98479.98;2113039;84;21043;-81
2022/02/15 11:03:08;;;;;;;32.00;20.40;;;;;;;10.35;55.94;98475.79;2112490;84;21959;-80
2022/02/15 11:06:08;;;;;;;31.27;20.97;;;;;;;10.48;55.85;98478.95;2111942;84;20995;-79
2022/02/15 11:09:09;;;;;;;32.83;21.50;;;;;;;10.76;55.51;98473.45;2112176;84;21003;-79
2022/02/15 11:12:09;;;;;;;37.42;21.05;;;;;;;11.09;54.69;98472.73;2112252;84;21007;-80
2022/02/15 11:15:10;;;;;;;37.77;20.93;;;;;;;11.13;52.03;98468.84;2113609;84;21015;-81
2022/02/15 11:18:12;;;;;;;32.77;19.63;;;;;;;11.05;53.82;98474.46;2114758;84;20995;-82
2022/02/15 11:21:13;;;;;;;31.73;18.57;;;;;;;10.91;53.11;98473.97;2115070;84;22083;-80
2022/02/15 11:24:13;;;;;;;32.80;19.27;;;;;;;10.83;53.25;98473.50;2113845;84;20986;-80
2022/02/15 11:27:14;;;;;;;44.30;18.77;;;;;;;10.75;54.21;98476.50;2114565;84;20991;-78
2022/02/15 11:30:16;;;;;;;259.13;28.30;;;;;;;10.75;54.08;98474.32;2113048;82;21457;-79
2022/02/15 11:33:16;;;;;;;27.60;15.70;;;;;;;10.67;53.75;98478.20;2113295;84;21082;-79
2022/02/15 11:36:19;;;;;;;29.57;16.77;;;;;;;10.55;52.71;98475.52;2113011;84;21027;-80
2022/02/15 11:39:19;;;;;;;30.87;16.83;;;;;;;10.48;52.66;98485.48;2113658;84;21062;-80
2022/02/15 11:42:19;;;;;;;29.37;17.00;;;;;;;10.42;51.49;98486.31;2114815;84;21011;-79
2022/02/15 11:45:20;;;;;;;30.60;18.80;;;;;;;10.44;52.90;98495.45;2054519;86;21041;-78
2022/02/15 11:48:20;;;;;;;33.23;19.57;;;;;;;10.47;52.59;98499.39;2113278;84;21054;-79
2022/02/15 11:51:21;;;;;;;36.27;20.80;;;;;;;10.42;52.11;98508.92;2114797;84;20955;-82
2022/02/15 11:54:23;;;;;;;33.83;21.20;;;;;;;10.32;52.65;98511.86;2056352;86;21017;-79
2022/02/15 11:57:24;;;;;;;36.97;22.00;;;;;;;10.22;52.43;98510.05;2113911;84;21034;-80
2022/02/15 12:00:24;;;;;;;38.43;23.40;;;;;;;10.16;53.26;98509.53;2115352;84;21011;-81
2022/02/15 12:03:27;;;;;;;44.57;25.17;;;;;;;10.11;52.76;98512.97;2047626;87;21013;-79
2022/02/15 12:06:28;;;;;;;44.23;23.77;;;;;;;10.07;53.70;98508.16;2114398;84;21015;-80
2022/02/15 12:09:28;;;;;;;31.53;20.23;;;;;;;10.11;54.26;98515.57;2114816;84;21030;-80
2022/02/15 12:12:29;;;;;;;39.03;20.30;;;;;;;10.19;53.83;98517.81;2055696;86;21002;-79
2022/02/15 12:15:31;;;;;;;30.13;18.83;;;;;;;10.26;53.57;98510.94;2115147;84;21011;-78
2022/02/15 12:18:31;;;;;;;32.57;19.73;;;;;;;10.28;52.59;98513.13;2112799;84;21014;-79
2022/02/15 12:21:32;;;;;;;30.33;17.73;;;;;;;10.20;53.14;98510.03;2054562;86;21041;-80
2022/02/15 12:24:32;;;;;;;38.07;18.47;;;;;;;10.24;53.31;98507.45;2114341;84;21402;-80
2022/02/15 12:27:33;;;;;;;25.40;17.90;;;;;;;10.27;53.09;98503.12;2054642;86;21370;-81
2022/02/15 12:30:33;;;;;;;36.80;18.83;;;;;;;10.31;53.55;98505.33;2113814;83;21436;-80
2022/02/15 12:33:34;;;;;;;23.17;16.40;;;;;;;10.33;53.33;98503.17;2054875;86;20971;-81
2022/02/15 12:36:35;;;;;;;26.33;15.67;;;;;;;10.30;52.07;98500.97;2115189;84;20979;-80
2022/02/15 12:39:35;;;;;;;24.07;15.47;;;;;;;10.27;52.38;98500.52;2055436;87;21025;-80
2022/02/15 12:42:36;;;;;;;28.20;15.17;;;;;;;10.23;52.79;98497.88;2113618;84;21032;-78
2022/02/15 12:45:36;;;;;;;29.10;16.30;;;;;;;10.26;52.95;98493.98;2053402;86;21029;-78
2022/02/15 12:48:37;;;;;;;28.73;15.70;;;;;;;10.34;53.22;98494.48;2113163;84;21078;-79
2022/02/15 12:51:39;;;;;;;31.63;17.50;;;;;;;10.38;53.37;98497.55;2113182;84;21034;-79
2022/02/15 12:54:39;;;;;;;36.37;18.93;;;;;;;10.43;52.77;98501.53;2054246;87;20990;-80
2022/02/15 12:57:40;;;;;;;30.63;17.87;;;;;;;10.38;52.50;98497.55;2113713;84;21042;-81
2022/02/15 13:00:41;;;;;;;31.67;18.00;;;;;;;10.39;52.71;98495.39;2113602;84;20982;-80
2022/02/15 13:03:42;;;;;;;40.27;19.23;;;;;;;10.40;51.61;98499.78;2113185;84;21647;-79
2022/02/15 13:06:42;;;;;;;29.90;18.97;;;;;;;10.39;53.09;98498.00;2111064;84;21445;-80
2022/02/15 13:09:43;;;;;;;32.13;17.03;;;;;;;10.43;52.78;98497.19;2052267;86;20986;-80
2022/02/15 13:12:43;;;;;;;27.23;16.70;;;;;;;10.45;53.36;98503.30;2111124;84;21010;-80
2022/02/15 13:15:44;;;;;;;28.30;16.53;;;;;;;10.46;53.05;98512.87;2053295;86;21066;-78
2022/02/15 13:18:44;;;;;;;28.47;15.87;;;;;;;10.37;52.96;98512.77;2112336;84;21018;-80
2022/02/15 13:21:45;;;;;;;29.67;17.43;;;;;;;10.38;53.42;98511.03;2112383;84;20991;-80
2022/02/15 13:24:45;;;;;;;31.73;18.37;;;;;;;10.39;53.48;98518.00;2112411;84;20994;-80
2022/02/15 13:27:47;;;;;;;29.07;17.73;;;;;;;10.43;52.97;98514.58;2112891;84;20983;-80
2022/02/15 13:30:48;;;;;;;34.53;20.63;;;;;;;10.35;52.84;98515.80;2112470;83;21034;-79
2022/02/15 13:33:52;;;;;;;28.67;17.33;;;;;;;10.23;53.28;98513.52;2112773;84;20964;-76
2022/02/15 13:36:51;;;;;;;29.63;16.07;;;;;;;10.16;53.52;98517.78;2110003;84;21034;-77
2022/02/15 13:39:51;;;;;;;28.70;16.47;;;;;;;10.06;54.07;98522.05;2110726;84;21489;-77
2022/02/15 13:42:52;;;;;;;24.83;16.10;;;;;;;9.97;53.71;98512.84;2113182;84;21355;-79
2022/02/15 13:45:52;;;;;;;27.00;16.57;;;;;;;9.88;54.36;98511.03;2053966;86;21393;-80
2022/02/15 13:48:53;;;;;;;27.67;16.93;;;;;;;9.86;54.43;98506.23;2111745;84;21504;-79
2022/02/15 13:51:53;;;;;;;27.60;16.83;;;;;;;9.88;54.55;98508.85;2051930;86;21010;-80
2022/02/15 13:54:54;;;;;;;34.10;17.60;;;;;;;9.88;54.82;98504.94;2113213;84;20982;-80
2022/02/15 13:57:54;;;;;;;35.37;20.07;;;;;;;9.95;55.04;98507.17;2113210;84;21014;-82
2022/02/15 14:00:55;;;;;;;31.90;17.97;;;;;;;9.97;55.09;98510.23;2112797;84;20974;-82